createdAt,value
2023-05-16T00:01:10.550Z,145970.41
2023-05-16T00:03:38.191Z,145978.94
2023-05-16T00:06:05.839Z,145983.81
2023-05-16T00:08:32.952Z,146002.03
2023-05-16T00:11:00.117Z,145966.75
2023-05-16T00:13:27.984Z,145898.69
2023-05-16T00:15:56.149Z,145980.13
2023-05-16T00:18:23.270Z,145920.56
2023-05-16T00:20:51.863Z,145943.66
2023-05-16T00:23:18.966Z,145977.72
2023-05-16T00:25:47.326Z,145927.88
2023-05-16T00:28:14.340Z,145941.25
2023-05-16T00:30:41.473Z,145986.25
2023-05-16T00:33:08.585Z,145966.75
2023-05-16T00:35:35.741Z,145983.81
2023-05-16T00:38:02.828Z,145983.81
2023-05-16T00:40:29.853Z,145983.81
2023-05-16T00:42:56.880Z,145845.19
2023-05-16T00:45:24.073Z,145957.03
2023-05-16T00:47:51.872Z,145935.19
2023-05-16T00:50:19.186Z,145918.16
2023-05-16T00:52:46.217Z,145910.84
2023-05-16T00:55:14.849Z,145943.66
2023-05-16T00:57:42.145Z,145975.28
2023-05-16T01:00:10.659Z,145972.88
2023-05-16T01:02:38.751Z,145981.38
2023-05-16T01:05:07.241Z,145975.28
2023-05-16T01:07:35.906Z,145981.38
2023-05-16T01:10:04.179Z,145991.13
2023-05-16T01:13:00.611Z,145988.66
2023-05-16T01:15:36.753Z,145995.97
2023-05-16T01:18:11.187Z,145964.34
2023-05-16T01:21:00.437Z,145961.91
2023-05-16T01:23:47.084Z,145901.09
2023-05-16T01:26:18.993Z,145955.84
2023-05-16T01:28:46.878Z,145946.09
2023-05-16T01:31:14.212Z,145835.47
2023-05-16T01:33:41.934Z,145920.56
2023-05-16T01:36:35.861Z,145961.91
2023-05-16T01:39:22.193Z,145943.66
2023-05-16T01:42:00.797Z,145913.28
2023-05-16T01:44:41.165Z,145871.94
2023-05-16T01:47:12.472Z,145964.34
2023-05-16T01:49:46.655Z,145897.44
2023-05-16T01:52:20.044Z,145910.84
2023-05-16T01:54:48.895Z,145955.84
2023-05-16T01:57:16.265Z,145923.00
2023-05-16T01:59:44.641Z,145923.00
2023-05-16T02:02:11.678Z,145968.00
2023-05-16T02:04:38.752Z,145926.66
2023-05-16T02:07:06.565Z,145879.22
2023-05-16T02:09:33.901Z,145897.44
2023-05-16T02:12:01.090Z,145893.78
2023-05-16T02:14:29.471Z,145884.06
2023-05-16T02:16:57.907Z,145884.06
2023-05-16T02:19:25.002Z,145812.38
2023-05-16T02:21:52.066Z,145853.72
2023-05-16T02:24:19.122Z,145771.06
2023-05-16T02:26:46.171Z,145729.75
2023-05-16T02:29:13.394Z,145801.41
2023-05-16T02:31:40.805Z,145706.59
2023-05-16T02:34:08.301Z,145698.09
2023-05-16T02:36:36.058Z,145682.25
2023-05-16T02:39:04.246Z,145684.72
2023-05-16T02:41:31.731Z,145724.84
2023-05-16T02:43:58.770Z,145733.34
2023-05-16T02:46:27.898Z,145677.41
2023-05-16T02:48:55.293Z,145631.25
2023-05-16T02:51:25.170Z,145696.84
2023-05-16T02:53:53.161Z,145699.34
2023-05-16T02:56:21.689Z,145621.53
2023-05-16T02:58:49.995Z,145672.56
2023-05-16T03:01:17.455Z,145687.13
2023-05-16T03:03:44.823Z,145683.47
2023-05-16T03:06:12.425Z,145640.97
2023-05-16T03:08:39.587Z,145659.19
2023-05-16T03:11:06.848Z,145676.19
2023-05-16T03:13:34.080Z,145685.91
2023-05-16T03:16:01.404Z,145643.41
2023-05-16T03:18:28.673Z,145673.75
2023-05-16T03:20:56.188Z,145653.13
2023-05-16T03:23:24.247Z,145653.13
2023-05-16T03:25:51.437Z,145620.31
2023-05-16T03:28:21.322Z,145619.06
2023-05-16T03:30:48.418Z,145668.91
2023-05-16T03:33:16.139Z,145644.63
2023-05-16T03:35:43.631Z,145648.28
2023-05-16T03:38:10.799Z,145670.09
2023-05-16T03:40:37.886Z,145628.78
2023-05-16T03:43:05.261Z,145638.56
2023-05-16T03:45:32.778Z,145667.69
2023-05-16T03:48:00.266Z,145638.56
2023-05-16T03:50:27.404Z,145665.25
2023-05-16T03:52:54.500Z,145614.22
2023-05-16T03:55:21.746Z,145594.78
2023-05-16T03:57:50.138Z,145645.81
2023-05-16T04:00:17.834Z,145653.13
2023-05-16T04:02:45.269Z,145623.94
2023-05-16T04:05:13.914Z,145616.69
2023-05-16T04:07:41.473Z,145648.28
2023-05-16T04:10:09.405Z,145606.97
2023-05-16T04:12:36.719Z,145650.66
2023-05-16T04:15:04.622Z,145628.78
2023-05-16T04:17:31.736Z,145614.22
2023-05-16T04:19:59.782Z,145631.25
2023-05-16T04:22:27.393Z,145570.50
2023-05-16T04:24:54.495Z,145574.13
2023-05-16T04:27:21.735Z,145592.34
2023-05-16T04:29:49.246Z,145575.38
2023-05-16T04:32:17.292Z,145575.38
2023-05-16T04:34:46.690Z,145580.22
2023-05-16T04:37:14.143Z,145555.91
2023-05-16T04:39:42.599Z,145473.31
2023-05-16T04:42:09.624Z,145538.94
2023-05-16T04:44:36.622Z,145526.78
2023-05-16T04:47:03.735Z,145541.34
2023-05-16T04:49:30.767Z,145512.19
2023-05-16T04:51:57.821Z,145486.69
2023-05-16T04:54:24.888Z,145502.50
2023-05-16T04:56:51.885Z,145478.16
2023-05-16T04:59:18.892Z,145439.34
2023-05-16T05:01:46.075Z,145456.34
2023-05-16T05:04:13.111Z,145412.63
2023-05-16T05:06:41.115Z,145388.34
2023-05-16T05:09:08.369Z,145456.34
2023-05-16T05:11:35.552Z,145427.19
2023-05-16T05:14:02.695Z,145373.75
2023-05-16T05:16:29.831Z,145395.63
2023-05-16T05:18:57.142Z,145381.06
2023-05-16T05:21:25.344Z,145398.06
2023-05-16T05:23:52.586Z,145402.91
2023-05-16T05:26:19.680Z,145376.19
2023-05-16T05:28:53.735Z,145424.78
2023-05-16T05:31:29.797Z,145413.81
2023-05-16T05:33:56.932Z,145419.94
2023-05-16T05:36:24.024Z,145447.84
2023-05-16T05:38:51.038Z,145434.47
2023-05-16T05:41:18.048Z,145366.50
2023-05-16T05:43:45.042Z,145395.63
2023-05-16T05:46:12.172Z,145373.75
2023-05-16T05:48:39.537Z,145286.34
2023-05-16T05:51:06.846Z,145391.97
2023-05-16T05:53:34.601Z,145424.78
2023-05-16T05:56:01.618Z,145359.19
2023-05-16T05:58:28.737Z,145325.22
2023-05-16T06:00:55.911Z,145417.47
2023-05-16T06:03:23.162Z,145450.25
2023-05-16T06:05:50.743Z,145441.75
2023-05-16T06:08:17.772Z,145463.63
2023-05-16T06:10:44.756Z,145395.63
2023-05-16T06:13:11.818Z,145393.22
2023-05-16T06:15:38.816Z,145495.19
2023-05-16T06:18:05.982Z,145462.41
2023-05-16T06:20:33.020Z,145497.63
2023-05-16T06:23:00.016Z,145451.44
2023-05-16T06:25:27.190Z,145402.91
2023-05-16T06:27:54.322Z,145470.91
2023-05-16T06:30:21.310Z,145399.25
2023-05-16T06:32:48.622Z,145307.00
2023-05-16T06:35:15.808Z,145432.03
2023-05-16T06:37:43.216Z,145441.75
2023-05-16T06:40:11.249Z,145395.63
2023-05-16T06:42:41.371Z,145315.50
2023-05-16T06:45:09.200Z,145432.03
2023-05-16T06:47:36.408Z,145413.81
2023-05-16T06:50:03.720Z,145275.44
2023-05-16T06:52:30.937Z,145253.59
2023-05-16T06:54:57.997Z,145264.50
2023-05-16T06:57:25.108Z,145308.22
2023-05-16T06:59:52.168Z,145308.22
2023-05-16T07:02:19.272Z,145279.09
2023-05-16T07:04:46.631Z,145441.75
2023-05-16T07:07:13.692Z,145385.91
2023-05-16T07:09:40.862Z,145529.22
2023-05-16T07:12:08.184Z,145562.00
2023-05-16T07:14:35.366Z,145606.97
2023-05-16T07:17:02.755Z,145546.19
2023-05-16T07:19:30.060Z,145524.31
2023-05-16T07:21:57.138Z,145451.44
2023-05-16T07:24:24.371Z,145459.97
2023-05-16T07:26:51.773Z,145565.66
2023-05-16T07:29:19.106Z,145752.81
2023-05-16T07:31:46.466Z,145723.63
2023-05-16T07:34:13.568Z,145628.78
2023-05-16T07:36:41.090Z,145504.91
2023-05-16T07:39:08.322Z,145421.13
2023-05-16T07:41:35.462Z,145349.47
2023-05-16T07:44:02.587Z,145385.91
2023-05-16T07:46:29.931Z,145382.25
2023-05-16T07:48:57.094Z,145489.13
2023-05-16T07:51:24.388Z,145540.13
2023-05-16T07:53:52.001Z,145495.19
2023-05-16T07:56:19.141Z,145378.59
2023-05-16T07:58:46.351Z,145515.84
2023-05-16T08:01:13.835Z,145558.34
2023-05-16T08:03:40.981Z,145587.50
2023-05-16T08:06:08.157Z,145514.59
2023-05-16T08:08:35.332Z,145486.69
2023-05-16T08:11:02.440Z,145511.00
2023-05-16T08:13:29.654Z,145541.34
2023-05-16T08:15:56.870Z,145679.84
2023-05-16T08:18:24.342Z,145713.91
2023-05-16T08:20:51.545Z,145639.75
2023-05-16T08:23:19.086Z,145644.63
2023-05-16T08:25:46.418Z,145664.03
2023-05-16T08:28:13.482Z,145706.59
2023-05-16T08:30:42.532Z,145683.47
2023-05-16T08:33:10.389Z,145701.75
2023-05-16T08:35:39.916Z,145583.88
2023-05-16T08:38:07.131Z,145542.53
2023-05-16T08:40:34.348Z,145529.22
2023-05-16T08:43:02.164Z,145628.78
2023-05-16T08:45:31.178Z,145643.41
2023-05-16T08:48:01.414Z,145733.34
2023-05-16T08:50:35.134Z,145837.88
2023-05-16T08:53:07.822Z,145884.06
2023-05-16T08:55:35.724Z,145950.97
2023-05-16T08:58:03.638Z,145884.06
2023-05-16T09:00:33.808Z,145840.34
2023-05-16T09:03:01.327Z,145733.34
2023-05-16T09:05:30.492Z,145788.03
2023-05-16T09:07:57.664Z,145781.97
2023-05-16T09:23:51.203Z,145700.53
2023-05-16T09:26:19.333Z,145774.66
2023-05-16T09:28:46.482Z,145845.19
2023-05-16T09:31:22.243Z,145886.53
2023-05-16T09:33:52.349Z,145982.59
2023-05-16T09:36:19.626Z,146026.41
2023-05-16T09:38:46.854Z,146054.38
2023-05-16T09:41:14.038Z,146148.06
2023-05-16T09:43:43.651Z,146236.94
2023-05-16T09:46:15.600Z,146047.06
2023-05-16T09:48:46.897Z,146064.09
2023-05-16T09:51:15.510Z,146104.31
2023-05-16T09:53:43.526Z,146053.13
2023-05-16T09:56:12.038Z,146132.28
2023-05-16T09:58:41.074Z,146077.53
2023-05-16T10:01:09.422Z,146061.63
2023-05-16T10:03:38.800Z,146095.78
2023-05-16T10:06:07.073Z,146042.19
2023-05-16T10:08:37.210Z,146044.66
2023-05-16T10:11:05.819Z,145952.19
2023-05-16T10:13:36.852Z,145961.91
2023-05-16T10:16:11.760Z,146121.28
2023-05-16T10:18:40.599Z,146151.72
2023-05-16T10:21:15.655Z,146232.06
2023-05-16T10:23:43.885Z,146288.03
2023-05-16T10:26:13.874Z,146295.31
2023-05-16T10:28:41.189Z,146176.06
2023-05-16T10:31:10.461Z,146151.72
2023-05-16T10:33:39.155Z,146244.22
2023-05-16T10:36:10.831Z,146283.19
2023-05-16T10:38:39.062Z,146339.16
2023-05-16T10:41:07.418Z,146378.16
2023-05-16T10:43:34.492Z,146250.34
2023-05-16T10:46:07.969Z,146296.56
2023-05-16T10:48:40.191Z,146278.31
2023-05-16T10:51:22.545Z,146365.97
2023-05-16T10:53:54.478Z,146468.28
2023-05-16T10:56:26.667Z,146504.81
2023-05-16T10:58:55.281Z,146565.75
2023-05-16T11:01:30.184Z,146541.38
2023-05-16T11:03:57.517Z,146529.22
2023-05-16T11:06:25.510Z,146456.13
2023-05-16T11:09:07.751Z,146319.69
2023-05-16T11:11:53.672Z,146268.59
2023-05-16T11:14:42.141Z,146241.81
2023-05-16T11:17:15.408Z,146297.78
2023-05-16T11:19:59.299Z,146401.28
2023-05-16T11:22:29.269Z,146538.94
2023-05-16T11:25:00.237Z,146719.31
2023-05-16T11:27:32.673Z,146737.59
2023-05-16T11:30:07.202Z,146616.91
2023-05-16T11:32:36.075Z,146576.69
2023-05-16T11:35:07.496Z,146423.22
2023-05-16T11:37:36.491Z,146492.66
2023-05-16T11:40:04.583Z,146563.31
2023-05-16T11:42:34.229Z,146440.28
2023-05-16T11:45:09.938Z,146502.41
2023-05-16T11:47:38.837Z,146446.41
2023-05-16T11:50:13.827Z,146529.22
2023-05-16T11:52:44.685Z,146623.00
2023-05-16T11:55:17.440Z,146621.78
2023-05-16T11:57:52.311Z,146556.00
2023-05-16T12:00:22.373Z,146582.78
2023-05-16T12:02:50.089Z,146495.09
2023-05-16T12:05:18.934Z,146502.41
2023-05-16T12:07:48.920Z,146615.72
2023-05-16T12:10:16.376Z,146733.94
2023-05-16T12:12:52.525Z,146653.47
2023-05-16T12:15:20.188Z,146662.00
2023-05-16T12:17:50.522Z,146553.56
2023-05-16T12:20:18.653Z,146487.81
2023-05-16T12:22:45.996Z,146542.63
2023-05-16T12:25:30.737Z,146768.06
2023-05-16T12:28:00.489Z,146790.03
2023-05-16T12:30:29.499Z,146760.75
2023-05-16T12:32:57.974Z,146743.72
2023-05-16T12:35:30.044Z,146719.31
2023-05-16T12:37:57.310Z,146697.31
2023-05-16T12:40:29.222Z,146575.50
2023-05-16T12:42:56.553Z,146626.66
2023-05-16T12:45:24.077Z,146563.31
2023-05-16T12:47:51.437Z,146520.69
2023-05-16T12:50:19.752Z,146529.22
2023-05-16T12:52:50.766Z,146643.72
2023-05-16T12:55:18.961Z,146549.91
2023-05-16T12:57:47.920Z,146602.31
2023-05-16T13:00:18.697Z,146570.63
2023-05-16T13:02:47.718Z,146526.75
2023-05-16T13:05:15.428Z,146490.22
2023-05-16T13:07:42.606Z,146519.47
2023-05-16T13:10:11.380Z,146529.22
2023-05-16T13:12:39.983Z,146729.06
2023-05-16T13:15:08.757Z,146782.69
2023-05-16T13:17:36.775Z,146859.50
2023-05-16T13:20:10.470Z,146829.00
2023-05-16T13:22:37.768Z,146865.59
2023-05-16T13:25:06.200Z,146665.66
2023-05-16T13:27:34.130Z,146665.66
2023-05-16T13:30:01.382Z,146766.88
2023-05-16T13:32:28.535Z,146819.25
2023-05-16T13:34:55.840Z,146688.81
2023-05-16T13:37:24.498Z,146725.44
2023-05-16T13:39:54.548Z,146732.72
2023-05-16T13:42:22.337Z,146518.22
2023-05-16T13:44:49.878Z,146501.19
2023-05-16T13:47:17.008Z,146545.03
2023-05-16T13:49:47.490Z,146585.22
2023-05-16T13:52:21.017Z,146535.28
2023-05-16T13:54:48.134Z,146512.16
2023-05-16T13:57:15.203Z,146512.16
2023-05-16T14:02:12.306Z,146576.69
2023-05-16T14:04:39.440Z,146602.31
2023-05-16T14:07:07.132Z,146654.69
2023-05-16T14:09:35.164Z,146738.84
2023-05-16T14:12:05.001Z,146719.31
2023-05-16T14:14:32.129Z,146794.91
2023-05-16T14:16:59.443Z,146838.75
2023-05-16T14:19:26.765Z,146733.94
2023-05-16T14:21:53.958Z,146675.41
2023-05-16T14:24:21.312Z,146605.94
2023-05-16T14:26:48.510Z,146670.53
2023-05-16T14:29:15.794Z,146765.63
2023-05-16T14:31:42.970Z,146748.59
2023-05-16T14:34:10.084Z,146746.13
2023-05-16T14:36:37.631Z,146811.97
2023-05-16T14:39:04.906Z,146814.41
2023-05-16T14:41:31.979Z,146914.38
2023-05-16T14:43:59.126Z,146736.38
2023-05-16T14:46:26.460Z,146643.72
2023-05-16T14:48:53.509Z,146658.34
2023-05-16T14:51:20.704Z,146736.38
2023-05-16T14:53:47.740Z,146775.41
2023-05-16T14:56:15.064Z,146775.41
2023-05-16T14:58:42.089Z,146769.28
2023-05-16T15:01:09.318Z,146902.16
2023-05-16T15:03:53.564Z,146820.47
2023-05-16T15:06:23.135Z,146692.44
2023-05-16T15:08:50.767Z,146596.19
2023-05-16T15:11:17.957Z,146592.56
2023-05-16T15:13:45.009Z,146521.88
2023-05-16T15:16:12.176Z,146461.00
2023-05-16T15:18:43.540Z,146502.41
2023-05-16T15:21:10.820Z,146470.75
2023-05-16T15:23:37.892Z,146431.75
2023-05-16T15:26:05.436Z,146492.66
2023-05-16T15:28:32.531Z,146534.09
2023-05-16T15:30:59.602Z,146541.38
2023-05-16T15:33:26.866Z,146504.81
2023-05-16T15:35:53.970Z,146531.63
2023-05-16T15:38:21.025Z,146614.47
2023-05-16T15:40:52.739Z,146629.13
2023-05-16T15:43:28.561Z,146587.66
2023-05-16T15:45:55.879Z,146564.50
2023-05-16T15:48:22.916Z,146573.03
2023-05-16T15:50:49.958Z,146521.88
2023-05-16T15:53:17.040Z,146534.09
2023-05-16T15:55:44.131Z,146407.34
2023-05-16T15:58:11.174Z,146480.47
2023-05-16T16:00:39.231Z,146529.22
2023-05-16T16:03:06.794Z,146665.66
2023-05-16T16:05:33.968Z,147361.03
2023-05-16T16:08:01.042Z,147538.16
2023-05-16T16:10:28.198Z,147456.28
2023-05-16T16:13:00.257Z,147372.03
2023-05-16T16:15:31.037Z,147181.56
2023-05-16T16:18:00.492Z,147146.19
2023-05-16T16:20:27.913Z,147488.03
2023-05-16T16:22:55.049Z,147632.22
2023-05-16T16:25:22.102Z,147477.06
2023-05-16T16:27:49.260Z,148207.00
2023-05-16T16:30:16.392Z,148404.09
2023-05-16T16:32:43.517Z,148184.97
2023-05-16T16:35:10.689Z,147627.34
2023-05-16T16:37:37.874Z,147285.34
2023-05-16T16:40:08.208Z,147032.72
2023-05-16T16:42:37.849Z,146855.84
2023-05-16T16:45:05.684Z,146707.09
2023-05-16T16:47:33.428Z,146660.75
2023-05-16T16:50:01.329Z,146719.31
2023-05-16T16:52:28.848Z,146746.13
2023-05-16T16:54:56.004Z,146836.34
2023-05-16T16:57:23.235Z,146866.84
2023-05-16T16:59:50.617Z,146821.72
2023-05-16T17:02:17.898Z,146799.78
2023-05-16T17:04:45.275Z,146548.69
2023-05-16T17:07:13.620Z,146510.94
2023-05-16T17:09:42.942Z,146506.06
2023-05-16T17:12:18.682Z,146614.47
2023-05-16T17:14:47.838Z,146593.78
2023-05-16T17:17:16.156Z,146746.13
2023-05-16T17:19:45.009Z,146562.09
2023-05-16T17:22:12.703Z,146677.81
2023-05-16T17:24:39.771Z,146614.47
2023-05-16T17:27:07.174Z,146534.09
2023-05-16T17:29:34.294Z,146651.00
2023-05-16T17:32:01.353Z,146546.22
2023-05-16T17:34:28.436Z,146614.47
2023-05-16T17:36:55.496Z,146504.81
2023-05-16T17:39:22.688Z,146389.09
2023-05-16T17:41:49.848Z,146290.47
2023-05-16T17:44:16.890Z,146252.75
2023-05-16T17:46:44.308Z,146342.84
2023-05-16T17:49:11.623Z,146232.06
2023-05-16T17:51:56.591Z,146346.50
2023-05-16T17:54:24.064Z,146317.25
2023-05-16T17:56:51.236Z,146288.03
2023-05-16T17:59:19.272Z,146295.31
2023-05-16T18:01:46.624Z,146228.41
2023-05-16T18:04:14.322Z,146268.59
2023-05-16T18:06:41.855Z,146210.16
2023-05-16T18:09:10.190Z,146195.56
2023-05-16T18:11:40.587Z,146197.97
2023-05-16T18:14:12.800Z,146205.28
2023-05-16T18:16:40.209Z,146204.03
2023-05-16T18:19:08.725Z,146086.06
2023-05-16T18:21:37.434Z,146143.22
2023-05-16T18:24:05.264Z,146098.19
2023-05-16T18:26:32.397Z,146110.38
2023-05-16T18:28:59.692Z,146088.47
2023-05-16T18:31:27.238Z,146098.19
2023-05-16T18:33:54.839Z,146096.97
2023-05-16T18:36:21.978Z,146083.59
2023-05-16T18:38:51.338Z,146104.31
2023-05-16T18:41:18.525Z,146037.31
2023-05-16T18:43:45.663Z,146061.63
2023-05-16T18:46:12.723Z,146031.25
2023-05-16T18:48:39.827Z,146051.91
2023-05-16T18:51:06.997Z,146037.31
2023-05-16T18:53:34.182Z,146003.25
2023-05-16T18:56:01.550Z,145981.38
2023-05-16T18:58:28.583Z,145859.78
2023-05-16T19:00:55.651Z,145961.91
2023-05-16T19:03:22.883Z,145903.56
2023-05-16T19:05:50.420Z,145878.00
2023-05-16T19:08:17.691Z,145891.38
2023-05-16T19:10:44.849Z,145903.56
2023-05-16T19:13:11.975Z,145831.81
2023-05-16T19:15:39.105Z,145881.66
2023-05-16T19:18:07.421Z,145863.44
2023-05-16T19:20:35.610Z,145874.34
2023-05-16T19:23:03.476Z,145920.56
2023-05-16T19:25:34.504Z,145926.66
2023-05-16T19:28:01.709Z,145893.78
2023-05-16T19:30:29.057Z,145784.38
2023-05-16T19:32:56.415Z,145854.91
2023-05-16T19:35:23.552Z,145837.88
2023-05-16T19:37:51.644Z,145878.00
2023-05-16T19:40:18.702Z,145879.22
2023-05-16T19:42:45.841Z,145863.44
2023-05-16T19:45:12.902Z,145871.94
2023-05-16T19:47:40.259Z,145820.84
2023-05-16T19:50:08.012Z,145837.88
2023-05-16T19:52:36.279Z,145801.41
2023-05-16T19:55:04.600Z,145842.75
2023-05-16T19:57:34.392Z,145856.13
2023-05-16T20:00:01.936Z,145807.53
2023-05-16T20:02:29.094Z,145805.06
2023-05-16T20:04:56.306Z,145709.06
2023-05-16T20:07:24.123Z,145806.28
2023-05-16T20:09:51.265Z,145771.06
2023-05-16T20:12:18.422Z,145777.13
2023-05-16T20:14:46.382Z,145774.66
2023-05-16T20:17:13.593Z,145757.69
2023-05-16T20:19:43.806Z,145726.09
2023-05-16T20:22:12.347Z,145706.59
2023-05-16T20:24:39.482Z,145688.31
2023-05-16T20:27:06.565Z,145642.16
2023-05-16T20:29:33.910Z,145630.03
2023-05-16T20:32:03.155Z,145657.97
2023-05-16T20:34:33.186Z,145586.28
2023-05-16T20:37:00.289Z,145572.91
2023-05-16T20:39:27.482Z,145597.19
2023-05-16T20:41:54.695Z,145580.22
2023-05-16T20:44:21.822Z,145581.44
2023-05-16T20:46:49.045Z,145570.50
2023-05-16T20:49:16.086Z,145565.66
2023-05-16T20:51:43.160Z,145495.19
2023-05-16T20:54:10.704Z,145491.53
2023-05-16T20:56:37.758Z,145502.50
2023-05-16T20:59:04.872Z,145508.56
2023-05-16T21:01:31.979Z,145479.41
2023-05-16T21:03:59.083Z,145509.75
2023-05-16T21:06:26.263Z,145419.94
2023-05-16T21:08:53.310Z,145472.13
2023-05-16T21:11:21.752Z,145434.47
2023-05-16T21:13:48.948Z,145503.69
2023-05-16T21:16:16.041Z,145421.13
2023-05-16T21:18:43.303Z,145511.00
2023-05-16T21:21:10.503Z,145509.75
2023-05-16T21:23:37.576Z,145434.47
2023-05-16T21:26:04.691Z,145512.19
2023-05-16T21:28:36.861Z,145473.31
2023-05-16T21:31:08.046Z,145500.03
2023-05-16T21:33:35.510Z,145483.03
2023-05-16T21:36:02.842Z,145480.63
2023-05-16T21:38:29.887Z,145478.16
2023-05-16T21:40:59.897Z,145466.06
2023-05-16T21:43:26.976Z,145519.47
2023-05-16T21:45:54.094Z,145500.03
2023-05-16T21:48:21.254Z,145529.22
2023-05-16T21:50:48.519Z,145521.91
2023-05-16T21:53:16.172Z,145521.91
2023-05-16T21:55:43.867Z,145507.34
2023-05-16T21:58:10.908Z,145490.34
2023-05-16T22:00:37.975Z,145478.16
2023-05-16T22:03:05.185Z,145502.50
2023-05-16T22:05:32.418Z,145502.50
2023-05-16T22:07:59.545Z,145497.63
2023-05-16T22:10:26.617Z,145464.81
2023-05-16T22:12:53.909Z,145447.84
2023-05-16T22:15:21.249Z,145398.06
2023-05-16T22:17:48.572Z,145383.50
2023-05-16T22:20:15.899Z,145373.75
2023-05-16T22:22:44.618Z,145351.94
2023-05-16T22:25:11.668Z,145319.13
2023-05-16T22:27:38.792Z,145325.22
2023-05-16T22:30:06.870Z,145291.22
2023-05-16T22:32:34.029Z,145281.50
2023-05-16T22:35:01.179Z,145286.34
2023-05-16T22:37:28.375Z,145257.25
2023-05-16T22:39:56.961Z,145247.50
2023-05-16T22:42:24.147Z,145223.19
2023-05-16T22:44:51.294Z,145269.34
2023-05-16T22:47:18.379Z,145194.09
2023-05-16T22:49:45.539Z,145173.44
2023-05-16T22:52:12.629Z,145191.66
2023-05-16T22:54:41.563Z,145179.53
2023-05-16T22:57:08.637Z,145223.19
2023-05-16T22:59:35.973Z,145211.09
2023-05-16T23:02:03.073Z,145214.69
2023-05-16T23:04:30.205Z,145276.66
2023-05-16T23:06:57.458Z,145249.91
2023-05-16T23:09:24.596Z,145286.34
2023-05-16T23:11:51.712Z,145247.50
2023-05-16T23:14:18.735Z,145279.09
2023-05-16T23:16:45.792Z,145232.91
2023-05-16T23:19:12.974Z,145285.16
2023-05-16T23:21:40.074Z,145283.97
2023-05-16T23:24:08.174Z,145264.50
2023-05-16T23:26:37.350Z,145185.59
2023-05-16T23:29:04.482Z,145242.66
2023-05-16T23:31:31.591Z,145196.50
2023-05-16T23:33:58.714Z,145179.53
2023-05-16T23:36:25.894Z,145178.28
2023-05-16T23:38:52.929Z,145133.44
2023-05-16T23:41:20.006Z,145116.44
2023-05-16T23:43:47.755Z,145104.31
2023-05-16T23:46:14.827Z,145092.22
2023-05-16T23:48:41.957Z,145121.31
2023-05-16T23:51:09.158Z,145077.63
2023-05-16T23:53:36.361Z,145061.88
2023-05-16T23:56:03.554Z,145043.69
2023-05-16T23:58:30.776Z,145088.56
